Time;durP1;ratioP1;P1;durP2;ratioP2;P2;SDS_P1;SDS_P2;PMS_P1;PMS_P2;Temp;Humidity;BMP_temperature;BMP_pressure;BME280_temperature;BME280_humidity;BME280_pressure;Samples;Min_cycle;Max_cycle;Signal;HPM_P1;HPM_P2
2021/05/18 00:00:39;;;;;;;1.00;0.73;;;13.40;71.50;;;;;;5073912;28;20032;-47
2021/05/18 00:03:07;;;;;;;1.40;0.77;;;13.40;71.30;;;;;;5074870;28;20032;-48
2021/05/18 00:05:34;;;;;;;1.80;0.70;;;13.40;71.20;;;;;;5056389;28;20024;-53
2021/05/18 00:08:04;;;;;;;3.55;1.35;;;13.50;71.00;;;;;;5074422;28;20025;-52
2021/05/18 00:16:17;;;;;;;1.67;0.90;;;13.40;71.20;;;;;;5074485;28;20050;-46
2021/05/18 00:18:43;;;;;;;3.35;0.90;;;13.40;71.20;;;;;;5074228;28;20029;-50
2021/05/18 00:21:09;;;;;;;2.65;0.80;;;13.30;71.00;;;;;;5056402;28;20033;-50
2021/05/18 00:23:36;;;;;;;1.48;0.77;;;13.30;71.10;;;;;;5073299;28;20553;-53
2021/05/18 00:26:02;;;;;;;2.38;0.80;;;13.30;71.30;;;;;;5056036;28;20224;-50
2021/05/18 00:28:28;;;;;;;4.00;0.90;;;13.30;71.50;;;;;;5073741;28;20036;-54
2021/05/18 00:30:54;;;;;;;2.30;0.73;;;13.30;71.60;;;;;;5055430;28;20040;-48
2021/05/18 00:33:21;;;;;;;1.90;1.40;;;13.30;71.50;;;;;;5073533;28;20473;-50
2021/05/18 00:35:48;;;;;;;1.83;0.82;;;13.30;71.50;;;;;;5073596;28;20490;-53
2021/05/18 00:38:15;;;;;;;0.93;0.70;;;13.30;71.30;;;;;;5073694;28;20048;-47
2021/05/18 00:40:43;;;;;;;1.30;0.73;;;13.40;71.30;;;;;;5073288;28;20174;-47
2021/05/18 00:43:11;;;;;;;2.47;0.70;;;13.30;71.50;;;;;;5055545;28;20035;-50
2021/05/18 00:45:40;;;;;;;4.65;0.82;;;13.30;71.60;;;;;;5072809;28;20372;-51
2021/05/18 00:48:07;;;;;;;3.47;0.90;;;13.20;71.80;;;;;;5072755;28;20120;-52
2021/05/18 00:50:35;;;;;;;1.20;0.70;;;13.20;72.00;;;;;;5054738;28;20039;-50
2021/05/18 00:53:01;;;;;;;1.10;0.80;;;13.20;72.10;;;;;;5073295;28;20056;-48
2021/05/18 01:00:43;;;;;;;1.35;0.68;;;13.10;72.30;;;;;;5057696;28;20039;-50
2021/05/18 01:03:10;;;;;;;1.38;0.70;;;13.20;72.40;;;;;;5073026;28;20050;-50
2021/05/18 01:08:20;;;;;;;1.25;0.70;;;13.10;72.60;;;;;;5072438;28;20048;-54
2021/05/18 01:10:47;;;;;;;0.93;0.57;;;13.20;72.50;;;;;;5072592;28;20473;-53
2021/05/18 01:13:13;;;;;;;1.27;0.70;;;13.20;72.20;;;;;;5072980;28;20185;-54
2021/05/18 01:15:39;;;;;;;1.27;0.73;;;13.20;72.20;;;;;;5054852;28;20206;-54
2021/05/18 01:18:06;;;;;;;2.30;0.60;;;13.20;72.20;;;;;;5073338;28;20477;-56
2021/05/18 01:20:36;;;;;;;0.85;0.50;;;13.20;72.40;;;;;;5054717;28;20029;-51
2021/05/18 01:23:02;;;;;;;1.13;0.73;;;13.20;72.50;;;;;;5054652;28;20120;-54
2021/05/18 01:25:27;;;;;;;0.80;0.55;;;13.10;72.90;;;;;;5072833;28;20055;-54
2021/05/18 01:27:53;;;;;;;2.50;0.82;;;13.10;73.00;;;;;;5072884;28;20086;-55
2021/05/18 01:30:19;;;;;;;1.58;0.70;;;13.10;73.10;;;;;;5054502;28;20033;-55
2021/05/18 01:32:45;;;;;;;3.72;0.68;;;13.10;73.30;;;;;;5072863;28;20024;-49
2021/05/18 01:35:13;;;;;;;0.52;0.52;;;13.10;73.20;;;;;;5072486;28;20374;-51
2021/05/18 01:37:41;;;;;;;1.08;0.70;;;13.10;73.20;;;;;;5072527;28;20214;-49
2021/05/18 01:42:54;;;;;;;1.88;0.70;;;13.00;73.70;;;;;;5072531;28;20061;-53
2021/05/18 01:45:29;;;;;;;2.15;0.60;;;13.10;73.70;;;;;;5072423;28;20032;-57
2021/05/18 01:47:59;;;;;;;1.55;0.85;;;13.10;73.80;;;;;;5072541;28;20037;-52
2021/05/18 01:50:27;;;;;;;2.25;0.80;;;13.10;73.70;;;;;;5071743;28;20481;-54
2021/05/18 01:52:54;;;;;;;1.80;0.82;;;13.20;73.40;;;;;;5071794;28;20092;-54
2021/05/18 01:57:53;;;;;;;1.58;0.80;;;13.20;73.20;;;;;;5092804;28;20032;-51
2021/05/18 02:00:24;;;;;;;1.58;0.80;;;13.10;73.60;;;;;;5090922;28;20060;-52
2021/05/18 02:02:50;;;;;;;2.90;1.00;;;13.10;74.00;;;;;;5092533;28;20063;-50
2021/05/18 02:05:18;;;;;;;1.20;0.80;;;13.10;74.00;;;;;;5092167;28;20023;-51
2021/05/18 02:07:46;;;;;;;2.65;1.00;;;13.10;74.00;;;;;;5091949;28;20031;-54
2021/05/18 02:10:15;;;;;;;2.08;1.05;;;13.10;73.90;;;;;;5091181;28;20492;-51
2021/05/18 02:12:40;;;;;;;2.25;1.10;;;13.20;73.90;;;;;;5090333;28;20020;-49
2021/05/18 02:15:23;;;;;;;2.08;1.20;;;13.10;74.60;;;;;;5091009;28;20028;-52
2021/05/18 02:21:01;;;;;;;2.90;0.90;;;13.10;74.00;;;;;;5092004;28;20086;-52
2021/05/18 02:26:12;;;;;;;2.33;0.90;;;13.10;74.50;;;;;;5092059;28;20115;-52
2021/05/18 02:28:39;;;;;;;2.28;0.80;;;13.10;74.70;;;;;;5091543;28;20044;-53
2021/05/18 02:31:05;;;;;;;2.13;1.00;;;13.10;74.60;;;;;;5090463;28;20048;-55
2021/05/18 02:33:30;;;;;;;2.55;0.80;;;13.00;74.70;;;;;;5091361;28;20068;-50
2021/05/18 02:35:56;;;;;;;3.35;0.98;;;13.00;74.70;;;;;;5090624;28;20107;-54
2021/05/18 02:38:22;;;;;;;4.43;0.90;;;13.00;74.60;;;;;;5091119;28;20530;-52
2021/05/18 02:40:48;;;;;;;2.00;1.08;;;13.10;74.70;;;;;;5091648;28;20035;-56
2021/05/18 02:43:22;;;;;;;3.28;0.98;;;13.10;74.50;;;;;;5091564;28;20028;-51
2021/05/18 02:51:00;;;;;;;1.90;1.00;;;13.20;74.20;;;;;;5091512;28;20047;-54
2021/05/18 02:53:26;;;;;;;2.53;0.88;;;13.20;74.00;;;;;;5077707;28;20049;-53
2021/05/18 02:56:08;;;;;;;2.40;0.90;;;13.20;73.90;;;;;;5053571;28;20032;-55
2021/05/18 02:59:08;;;;;;;3.63;1.10;;;13.20;74.00;;;;;;5053198;28;20035;-51
2021/05/18 03:01:35;;;;;;;3.03;0.80;;;13.20;74.00;;;;;;5052590;28;20112;-56
2021/05/18 03:04:01;;;;;;;3.42;1.00;;;13.20;73.90;;;;;;5071620;28;20067;-55
2021/05/18 03:06:27;;;;;;;1.88;0.80;;;13.20;73.90;;;;;;5070977;28;20056;-52
2021/05/18 03:08:53;;;;;;;2.35;0.93;;;13.30;73.50;;;;;;5071053;28;20373;-52
2021/05/18 03:11:19;;;;;;;2.53;1.00;;;13.40;73.20;;;;;;5071533;28;20036;-47
2021/05/18 03:13:45;;;;;;;3.95;0.80;;;13.40;72.90;;;;;;5070648;28;20384;-53
2021/05/18 03:16:10;;;;;;;1.92;0.90;;;13.50;72.70;;;;;;5071179;28;20021;-49
2021/05/18 03:18:36;;;;;;;1.63;0.73;;;13.50;72.40;;;;;;5070896;28;20120;-50
2021/05/18 03:21:03;;;;;;;2.83;0.80;;;13.60;72.00;;;;;;5070956;28;20104;-50
2021/05/18 03:23:29;;;;;;;1.65;0.90;;;13.60;72.10;;;;;;5070932;28;20025;-52
2021/05/18 03:25:56;;;;;;;4.55;0.80;;;13.60;72.20;;;;;;5071222;28;20063;-50
2021/05/18 03:28:22;;;;;;;4.35;1.02;;;13.60;72.20;;;;;;5070674;28;20060;-56
2021/05/18 03:36:08;;;;;;;1.75;0.90;;;13.70;71.70;;;;;;5071246;28;20499;-52
2021/05/18 03:38:39;;;;;;;4.75;0.95;;;13.80;71.30;;;;;;5052099;28;20056;-51
2021/05/18 03:41:19;;;;;;;4.20;0.90;;;14.00;70.90;;;;;;5071390;28;20038;-50
2021/05/18 04:04:57;;;;;;;3.08;1.10;;;14.20;69.80;;;;;;5072317;28;20416;-48
2021/05/18 04:10:46;;;;;;;4.57;1.33;;;14.30;69.50;;;;;;5074227;28;20120;-50
2021/05/18 04:16:52;;;;;;;6.88;1.70;;;14.20;69.60;;;;;;5057335;28;20595;-51
2021/05/18 04:18:52;;;;;;;4.32;1.10;;;13.90;70.90;;;;;;5073828;28;20027;-56
2021/05/18 04:21:43;;;;;;;2.55;1.20;;;13.80;71.30;;;;;;5074341;28;20107;-53
2021/05/18 04:59:17;;;;;;;3.58;1.45;;;14.90;67.20;;;;;;5030174;28;20059;-51
2021/05/18 05:07:06;;;;;;;3.25;1.15;;;15.40;65.50;;;;;;5073319;28;20458;-53
2021/05/18 05:09:45;;;;;;;2.25;1.13;;;15.50;64.40;;;;;;5072287;28;20041;-52
2021/05/18 05:14:47;;;;;;;3.40;1.15;;;15.20;65.60;;;;;;5072011;28;20020;-49
2021/05/18 05:17:13;;;;;;;4.88;1.45;;;15.30;65.40;;;;;;5072475;28;20027;-51
2021/05/18 05:19:39;;;;;;;2.50;1.10;;;15.50;65.10;;;;;;5072088;28;20025;-54
2021/05/18 05:22:06;;;;;;;3.25;1.30;;;15.60;64.30;;;;;;5072700;28;20043;-53
2021/05/18 05:24:33;;;;;;;3.50;1.20;;;15.80;63.50;;;;;;5072528;28;20461;-51
2021/05/18 05:27:01;;;;;;;10.43;2.53;;;15.90;63.60;;;;;;5054800;28;20024;-52
2021/05/18 05:29:27;;;;;;;6.20;1.67;;;15.80;63.50;;;;;;5072531;28;20056;-53
2021/05/18 05:31:55;;;;;;;2.55;1.25;;;15.90;63.10;;;;;;5054572;28;20389;-56
2021/05/18 05:34:40;;;;;;;2.33;1.10;;;15.90;62.90;;;;;;5073237;28;20021;-54
2021/05/18 05:37:06;;;;;;;8.30;1.67;;;15.80;63.00;;;;;;5054657;28;20067;-57
2021/05/18 05:39:31;;;;;;;2.42;1.20;;;15.90;63.00;;;;;;5072145;28;20029;-55
2021/05/18 05:41:57;;;;;;;12.52;1.30;;;15.70;63.10;;;;;;5054660;28;20024;-53
2021/05/18 05:44:24;;;;;;;4.53;1.20;;;15.60;63.30;;;;;;5072516;28;20089;-54
2021/05/18 05:46:51;;;;;;;6.60;1.02;;;15.50;63.80;;;;;;5072757;28;20103;-53
2021/05/18 05:49:17;;;;;;;4.65;1.13;;;15.40;64.20;;;;;;5072079;28;20031;-55
2021/05/18 05:51:43;;;;;;;1.73;0.90;;;15.30;64.60;;;;;;5072025;28;20040;-57
2021/05/18 05:54:09;;;;;;;4.47;1.10;;;15.40;64.00;;;;;;5089308;28;20048;-55
2021/05/18 05:56:37;;;;;;;4.05;1.27;;;15.30;64.30;;;;;;5092043;28;20521;-55
2021/05/18 05:59:07;;;;;;;3.38;1.45;;;15.40;64.20;;;;;;5090786;28;20062;-56
2021/05/18 06:01:33;;;;;;;7.95;1.20;;;15.40;64.40;;;;;;5090490;28;20028;-57
2021/05/18 06:04:00;;;;;;;4.60;1.10;;;15.50;64.30;;;;;;5091026;28;20027;-58
2021/05/18 06:06:26;;;;;;;5.60;0.93;;;15.60;64.00;;;;;;5092337;28;20488;-54
2021/05/18 06:08:52;;;;;;;5.68;1.52;;;15.60;63.50;;;;;;5073584;28;20024;-54
2021/05/18 06:11:23;;;;;;;2.83;1.85;;;15.70;63.40;;;;;;5091026;28;20035;-53
2021/05/18 06:49:06;;;;;;;7.45;1.48;;;16.40;61.50;;;;;;5057022;28;20040;-57
2021/05/18 06:51:32;;;;;;;4.45;2.17;;;16.90;60.30;;;;;;5090814;28;20126;-55
2021/05/18 06:53:57;;;;;;;4.68;1.77;;;19.00;57.30;;;;;;5090319;28;20040;-56
2021/05/18 06:56:31;;;;;;;5.95;1.80;;;23.30;46.20;;;;;;5090787;28;20440;-54
2021/05/18 07:01:29;;;;;;;6.57;2.38;;;29.50;34.60;;;;;;5090715;28;20038;-56
2021/05/18 07:03:56;;;;;;;2.67;1.85;;;31.80;31.40;;;;;;5089751;28;20024;-55
2021/05/18 07:07:07;;;;;;;8.93;2.15;;;33.50;29.40;;;;;;5090668;28;20020;-54
2021/05/18 07:09:12;;;;;;;4.30;1.70;;;34.80;27.80;;;;;;5087401;28;20043;-55
2021/05/18 07:11:37;;;;;;;2.97;1.63;;;35.10;26.80;;;;;;5088495;28;20418;-59
2021/05/18 07:14:04;;;;;;;5.50;2.38;;;35.40;26.60;;;;;;5090653;28;20024;-56
2021/05/18 07:16:30;;;;;;;5.00;2.17;;;37.30;25.50;;;;;;5088425;28;20032;-57
2021/05/18 07:18:56;;;;;;;3.10;2.00;;;38.10;25.00;;;;;;5089523;28;20455;-55
2021/05/18 07:21:23;;;;;;;3.28;2.00;;;38.20;24.00;;;;;;5089759;28;20476;-58
2021/05/18 07:23:51;;;;;;;7.68;1.83;;;37.80;24.00;;;;;;5090178;28;20024;-54
2021/05/18 07:26:20;;;;;;;3.42;1.80;;;36.80;24.50;;;;;;5089800;28;20027;-59
2021/05/18 07:28:46;;;;;;;4.50;1.20;;;36.10;24.90;;;;;;5089403;28;20027;-53
2021/05/18 07:31:17;;;;;;;5.20;1.70;;;34.50;25.40;;;;;;5091004;28;20032;-55
2021/05/18 07:34:02;;;;;;;6.50;1.00;;;31.70;27.60;;;;;;5090654;28;20024;-55
2021/05/18 07:36:28;;;;;;;5.43;1.98;;;31.40;27.70;;;;;;5088915;28;20468;-54
2021/05/18 07:38:56;;;;;;;5.57;2.15;;;31.70;28.20;;;;;;5091703;28;20210;-55
2021/05/18 07:41:23;;;;;;;2.70;1.90;;;30.00;29.30;;;;;;5093005;28;20031;-55
2021/05/18 07:43:49;;;;;;;2.72;2.10;;;30.60;29.20;;;;;;5094382;28;20073;-54
2021/05/18 07:46:20;;;;;;;4.22;2.33;;;31.90;28.20;;;;;;5094506;28;20099;-59
2021/05/18 07:49:08;;;;;;;4.20;2.00;;;33.30;27.20;;;;;;5094984;28;20027;-54
2021/05/18 07:59:35;;;;;;;4.63;1.00;;;36.10;24.80;;;;;;5073533;28;20027;-54
2021/05/18 08:07:30;;;;;;;2.35;1.10;;;30.80;28.00;;;;;;5073710;28;20081;-54
2021/05/18 08:10:07;;;;;;;2.03;0.88;;;31.10;28.20;;;;;;5070707;28;20149;-54
2021/05/18 08:12:33;;;;;;;4.10;1.92;;;28.90;29.50;;;;;;5073529;28;20023;-59
2021/05/18 08:15:38;;;;;;;3.17;2.85;;;28.50;30.60;;;;;;5073703;28;20369;-54
2021/05/18 08:20:56;;;;;;;2.60;1.67;;;31.70;27.70;;;;;;5073536;28;20134;-57
2021/05/18 09:34:41;;;;;;;5.18;1.30;;;22.90;39.30;;;;;;5072621;28;20042;-57
2021/05/18 10:36:13;;;;;;;1.77;1.30;;;20.40;52.40;;;;;;5022903;28;20123;-56
2021/05/18 10:38:43;;;;;;;3.78;1.65;;;20.10;52.70;;;;;;5052244;28;20024;-51
2021/05/18 10:41:19;;;;;;;4.95;2.90;;;20.10;52.90;;;;;;5053143;28;20075;-51
2021/05/18 10:43:56;;;;;;;3.60;1.90;;;20.10;53.60;;;;;;5070095;28;20472;-57
2021/05/18 10:46:24;;;;;;;4.63;1.40;;;20.20;53.20;;;;;;5053423;28;20346;-54
2021/05/18 10:48:56;;;;;;;3.47;1.30;;;20.30;52.80;;;;;;5049041;28;20020;-55
2021/05/18 10:51:25;;;;;;;5.82;1.50;;;20.50;51.60;;;;;;5052759;28;20392;-55
2021/05/18 10:54:19;;;;;;;4.35;1.75;;;20.40;51.70;;;;;;5070034;28;20125;-57
2021/05/18 10:57:00;;;;;;;7.43;1.85;;;20.40;51.60;;;;;;5052045;28;20036;-53
2021/05/18 10:59:32;;;;;;;6.53;1.70;;;20.40;51.20;;;;;;5052988;28;20063;-54
2021/05/18 11:02:03;;;;;;;5.07;1.60;;;20.20;51.20;;;;;;5068086;28;20035;-53
2021/05/18 11:04:33;;;;;;;4.60;1.83;;;19.50;52.40;;;;;;5070753;28;20064;-54
2021/05/18 11:07:01;;;;;;;2.30;1.35;;;19.40;53.30;;;;;;5068747;28;20020;-56
2021/05/18 11:09:28;;;;;;;2.80;1.55;;;19.10;53.50;;;;;;5068364;28;20111;-55
2021/05/18 11:12:00;;;;;;;4.35;2.15;;;19.10;54.00;;;;;;5070084;28;20036;-58
2021/05/18 11:14:37;;;;;;;7.38;2.30;;;19.30;53.90;;;;;;5070233;28;20025;-54
2021/05/18 11:17:20;;;;;;;3.45;1.70;;;19.30;53.90;;;;;;5052743;28;20086;-57
2021/05/18 11:19:46;;;;;;;4.75;2.08;;;19.20;54.20;;;;;;5070443;28;20025;-59
2021/05/18 11:22:12;;;;;;;5.82;1.88;;;19.10;54.70;;;;;;5070753;28;20070;-59
2021/05/18 11:24:48;;;;;;;4.90;1.40;;;19.10;54.90;;;;;;5070584;28;20099;-54
2021/05/18 11:27:25;;;;;;;8.73;1.40;;;19.10;54.60;;;;;;5070963;28;20028;-56
2021/05/18 11:29:51;;;;;;;4.72;1.90;;;19.30;54.20;;;;;;5070319;28;20028;-57
2021/05/18 11:32:17;;;;;;;7.93;1.60;;;19.40;54.10;;;;;;5070942;28;20077;-56
2021/05/18 11:35:02;;;;;;;4.10;2.15;;;19.40;54.10;;;;;;5070679;28;20020;-55
2021/05/18 11:37:29;;;;;;;1.77;1.20;;;19.50;53.90;;;;;;5070494;28;20115;-53
2021/05/18 11:40:17;;;;;;;3.40;1.45;;;19.70;53.20;;;;;;5069559;28;20091;-57
2021/05/18 11:42:44;;;;;;;7.80;1.60;;;19.80;53.00;;;;;;5051891;28;20028;-57
2021/05/18 11:45:13;;;;;;;3.90;1.33;;;19.90;52.30;;;;;;5070082;28;20049;-54
2021/05/18 11:47:40;;;;;;;4.55;1.30;;;20.20;51.50;;;;;;5070148;28;20017;-57
2021/05/18 11:50:14;;;;;;;6.00;1.63;;;20.50;50.30;;;;;;5052117;28;20036;-55
2021/05/18 11:52:40;;;;;;;5.95;1.40;;;20.80;49.60;;;;;;5069358;28;20060;-55
2021/05/18 11:55:30;;;;;;;3.25;1.20;;;20.90;49.30;;;;;;5070343;28;20047;-53
2021/05/18 11:57:57;;;;;;;3.85;1.50;;;21.00;48.70;;;;;;5069951;28;20021;-55
2021/05/18 12:00:24;;;;;;;4.70;1.35;;;20.60;51.00;;;;;;5070157;28;20097;-52
2021/05/18 12:03:09;;;;;;;4.18;1.13;;;20.00;54.30;;;;;;5069584;28;20257;-53
2021/05/18 12:05:50;;;;;;;4.90;1.38;;;19.70;56.30;;;;;;5051682;28;20063;-53
2021/05/18 12:08:32;;;;;;;4.25;1.27;;;19.50;58.10;;;;;;5052083;28;20036;-52
2021/05/18 12:11:16;;;;;;;3.65;1.48;;;19.30;58.80;;;;;;5052361;28;20037;-55
2021/05/18 12:13:44;;;;;;;3.15;1.42;;;19.20;58.70;;;;;;5069548;28;20028;-55
2021/05/18 12:16:12;;;;;;;2.30;1.35;;;18.90;58.50;;;;;;5070624;28;20059;-57
2021/05/18 12:18:42;;;;;;;7.38;1.92;;;18.90;58.90;;;;;;5070145;28;20017;-52
2021/05/18 12:21:15;;;;;;;6.30;1.60;;;18.70;59.80;;;;;;5070335;28;20031;-55
2021/05/18 12:23:42;;;;;;;3.78;1.50;;;18.70;60.00;;;;;;5051711;28;20025;-60
2021/05/18 12:26:16;;;;;;;5.20;2.28;;;18.80;60.60;;;;;;5053944;28;20534;-57
2021/05/18 12:28:59;;;;;;;3.03;1.90;;;19.10;59.20;;;;;;5056163;28;20020;-56
2021/05/18 12:31:26;;;;;;;3.00;1.50;;;19.60;58.30;;;;;;5074253;28;20392;-58
2021/05/18 12:33:52;;;;;;;6.78;1.63;;;19.50;57.20;;;;;;5072731;28;20118;-55
2021/05/18 12:36:18;;;;;;;5.68;1.70;;;19.40;57.40;;;;;;5073306;28;20115;-57
2021/05/18 12:39:03;;;;;;;6.45;1.98;;;19.60;57.30;;;;;;5073067;28;20050;-55
2021/05/18 12:41:29;;;;;;;3.60;1.73;;;19.90;56.60;;;;;;5054870;28;20037;-53
2021/05/18 12:44:05;;;;;;;3.30;2.00;;;19.80;55.50;;;;;;5072699;28;20025;-55
2021/05/18 12:46:31;;;;;;;3.83;1.70;;;19.80;56.30;;;;;;5072587;28;20032;-52
2021/05/18 12:48:57;;;;;;;4.93;1.70;;;20.00;54.70;;;;;;5053628;28;20020;-55
2021/05/18 12:51:27;;;;;;;3.72;1.50;;;20.10;54.50;;;;;;5072851;28;20110;-54
2021/05/18 12:54:04;;;;;;;3.40;1.35;;;20.20;53.60;;;;;;5072373;28;20045;-51
2021/05/18 12:56:31;;;;;;;2.15;1.15;;;20.00;53.70;;;;;;5054353;28;20449;-57
2021/05/18 12:59:08;;;;;;;4.18;1.50;;;20.20;52.90;;;;;;5052985;28;20035;-54
2021/05/18 13:01:42;;;;;;;2.67;1.33;;;20.40;52.50;;;;;;5054258;28;20368;-53
2021/05/18 13:04:09;;;;;;;1.85;1.13;;;20.10;52.10;;;;;;5072190;28;20259;-53
2021/05/18 13:09:30;;;;;;;6.20;1.70;;;20.40;51.20;;;;;;5071499;28;20398;-53
2021/05/18 13:12:15;;;;;;;6.00;1.60;;;20.50;50.50;;;;;;5071227;28;20403;-55
2021/05/18 13:14:55;;;;;;;3.38;1.40;;;20.40;50.20;;;;;;5071637;28;20123;-52
2021/05/18 13:17:21;;;;;;;2.75;1.30;;;20.50;49.90;;;;;;5071846;28;20056;-54
2021/05/18 13:20:07;;;;;;;5.07;1.35;;;20.40;49.80;;;;;;5054054;28;20060;-57
2021/05/18 13:22:36;;;;;;;4.07;1.20;;;20.50;50.30;;;;;;5072358;28;20028;-56
2021/05/18 13:28:02;;;;;;;4.50;1.30;;;20.90;49.10;;;;;;5064972;28;20496;-55
2021/05/18 13:30:29;;;;;;;3.05;1.10;;;21.00;48.60;;;;;;5053070;28;20033;-54
2021/05/18 13:32:56;;;;;;;2.97;0.95;;;20.90;48.30;;;;;;5071009;28;20037;-53
2021/05/18 13:35:24;;;;;;;4.20;1.50;;;21.10;48.60;;;;;;5054474;28;20035;-54
2021/05/18 13:37:51;;;;;;;2.67;1.15;;;21.10;48.80;;;;;;5071398;28;20016;-53
2021/05/18 13:40:18;;;;;;;3.47;1.88;;;21.00;50.20;;;;;;5054117;28;20028;-56
2021/05/18 13:42:50;;;;;;;6.18;1.40;;;20.80;49.80;;;;;;5071156;28;20090;-53
2021/05/18 13:45:16;;;;;;;3.15;1.20;;;20.40;52.60;;;;;;5070939;28;20081;-55
2021/05/18 13:47:42;;;;;;;3.28;1.33;;;19.90;54.70;;;;;;5053158;28;20024;-56
2021/05/18 13:50:08;;;;;;;7.63;1.83;;;19.60;56.40;;;;;;5070721;28;20047;-56
2021/05/18 13:52:34;;;;;;;3.08;1.20;;;19.70;57.50;;;;;;5070981;28;20048;-55
2021/05/18 13:54:59;;;;;;;3.47;1.38;;;19.60;56.80;;;;;;5070821;28;20083;-53
2021/05/18 13:57:25;;;;;;;2.88;1.50;;;19.90;57.60;;;;;;5053108;28;20031;-54
2021/05/18 13:59:51;;;;;;;3.60;1.40;;;19.90;56.90;;;;;;5052781;28;20036;-53
2021/05/18 14:02:18;;;;;;;4.40;1.60;;;20.10;57.10;;;;;;5052705;28;20028;-53
2021/05/18 14:05:06;;;;;;;4.88;2.72;;;20.40;57.40;;;;;;5051141;28;20136;-55
2021/05/18 14:10:46;;;;;;;4.03;2.20;;;21.40;54.10;;;;;;5063485;28;20048;-53
2021/05/18 14:13:13;;;;;;;4.00;1.50;;;21.80;52.80;;;;;;5050469;28;20055;-56
2021/05/18 14:15:39;;;;;;;2.20;1.05;;;22.00;50.90;;;;;;5045007;28;20104;-54
2021/05/18 14:18:05;;;;;;;2.17;0.95;;;22.00;49.60;;;;;;5070766;28;20062;-54
2021/05/18 14:20:31;;;;;;;2.05;1.08;;;22.30;49.30;;;;;;5070750;28;20032;-55
2021/05/18 14:22:58;;;;;;;3.33;1.80;;;22.30;48.60;;;;;;5070238;28;20264;-51
2021/05/18 14:25:24;;;;;;;3.00;1.42;;;22.00;49.50;;;;;;5070864;28;20020;-55
2021/05/18 14:27:49;;;;;;;3.92;2.25;;;21.60;49.60;;;;;;5070181;28;20050;-55
2021/05/18 14:30:16;;;;;;;2.92;1.50;;;21.20;49.90;;;;;;5051861;28;20048;-54
2021/05/18 14:32:42;;;;;;;2.90;1.25;;;20.90;49.80;;;;;;5068564;28;20485;-56
2021/05/18 14:35:11;;;;;;;3.72;1.63;;;20.60;50.50;;;;;;5069769;28;20362;-55
2021/05/18 14:37:38;;;;;;;2.25;1.20;;;20.70;50.40;;;;;;5070220;28;20035;-54
2021/05/18 14:40:25;;;;;;;4.13;1.27;;;20.50;50.80;;;;;;5052435;28;20422;-54
2021/05/18 14:42:58;;;;;;;4.30;2.15;;;20.30;50.60;;;;;;5051799;28;20024;-53
2021/05/18 14:45:36;;;;;;;6.18;3.15;;;20.00;50.90;;;;;;5052094;28;20068;-56
2021/05/18 14:56:02;;;;;;;3.38;1.85;;;18.40;66.30;;;;;;5069442;28;20059;-55
2021/05/18 14:58:28;;;;;;;3.55;1.50;;;18.10;63.70;;;;;;5051471;28;20469;-55
2021/05/18 15:00:54;;;;;;;3.25;1.85;;;18.10;62.90;;;;;;5070138;28;20109;-52
2021/05/18 15:03:23;;;;;;;2.65;1.20;;;18.10;62.10;;;;;;5052669;28;20463;-51
2021/05/18 15:05:50;;;;;;;6.18;1.30;;;18.30;61.50;;;;;;5068941;28;20028;-52
2021/05/18 15:08:15;;;;;;;2.17;1.10;;;18.50;60.90;;;;;;5051255;28;20484;-52
2021/05/18 15:10:43;;;;;;;2.17;1.38;;;18.60;58.60;;;;;;5069956;28;20032;-56
2021/05/18 15:13:09;;;;;;;3.67;1.08;;;18.60;59.90;;;;;;5051392;28;20056;-55
2021/05/18 15:15:35;;;;;;;3.65;1.17;;;18.50;58.30;;;;;;5070123;28;20114;-57
2021/05/18 15:18:01;;;;;;;2.28;1.23;;;18.40;59.60;;;;;;5051672;28;20033;-55
2021/05/18 15:20:27;;;;;;;6.40;1.13;;;18.50;59.40;;;;;;5051718;28;20037;-51
2021/05/18 15:22:53;;;;;;;3.72;1.10;;;18.30;59.20;;;;;;5069724;28;20078;-54
2021/05/18 15:25:21;;;;;;;1.80;0.90;;;18.10;59.60;;;;;;5069844;28;20028;-55
2021/05/18 15:27:47;;;;;;;1.85;1.20;;;18.00;60.20;;;;;;5069591;28;20024;-54
2021/05/18 15:30:14;;;;;;;2.75;1.27;;;18.00;60.20;;;;;;5052099;28;20037;-57
2021/05/18 15:32:40;;;;;;;2.83;1.30;;;18.10;60.50;;;;;;5051367;28;20411;-52
2021/05/18 15:35:07;;;;;;;2.92;1.50;;;18.20;60.20;;;;;;5070433;28;20047;-54
2021/05/18 15:37:34;;;;;;;3.40;1.20;;;18.30;60.10;;;;;;5052806;28;20029;-55
2021/05/18 15:40:00;;;;;;;2.75;1.35;;;18.60;59.30;;;;;;5051946;28;20222;-53
2021/05/18 15:42:26;;;;;;;1.40;1.00;;;18.50;58.60;;;;;;5052138;28;20028;-57
2021/05/18 15:44:52;;;;;;;2.85;1.35;;;18.50;58.90;;;;;;5035699;28;20077;-56
2021/05/18 15:47:19;;;;;;;3.00;1.60;;;18.50;59.00;;;;;;5051887;28;20028;-56
2021/05/18 15:49:45;;;;;;;2.92;1.20;;;18.40;59.40;;;;;;5035299;28;20033;-51
2021/05/18 15:52:11;;;;;;;3.22;2.33;;;18.30;58.70;;;;;;5070197;28;20059;-56
2021/05/18 15:54:49;;;;;;;2.63;1.45;;;18.10;59.50;;;;;;5052325;28;20368;-52
2021/05/18 15:57:16;;;;;;;5.80;1.98;;;18.00;60.10;;;;;;5069067;28;20033;-51
2021/05/18 15:59:47;;;;;;;3.58;2.45;;;17.80;60.70;;;;;;5069044;28;20047;-55
2021/05/18 16:02:13;;;;;;;4.55;1.85;;;17.70;61.00;;;;;;5073646;28;20032;-51
2021/05/18 16:04:39;;;;;;;9.45;4.32;;;17.90;61.40;;;;;;5073206;28;20086;-55
2021/05/18 16:07:07;;;;;;;3.40;2.05;;;18.20;61.30;;;;;;5072521;28;20040;-50
2021/05/18 16:09:33;;;;;;;2.78;1.65;;;18.50;60.20;;;;;;5055802;28;20032;-55
2021/05/18 16:12:06;;;;;;;4.07;2.10;;;18.80;59.20;;;;;;5055739;28;20119;-52
2021/05/18 16:14:32;;;;;;;2.50;1.60;;;19.00;58.90;;;;;;5055680;28;20024;-55
2021/05/18 16:17:01;;;;;;;4.50;2.00;;;19.10;58.00;;;;;;5074074;28;20381;-56
2021/05/18 16:19:27;;;;;;;2.60;1.60;;;19.50;57.70;;;;;;5074166;28;20025;-60
2021/05/18 16:21:53;;;;;;;2.78;1.73;;;19.70;56.10;;;;;;5072989;28;20028;-57
2021/05/18 16:24:21;;;;;;;4.45;1.38;;;19.70;55.70;;;;;;5055561;28;20074;-54
2021/05/18 16:27:14;;;;;;;2.70;1.60;;;19.70;55.30;;;;;;5055968;28;20425;-55
2021/05/18 16:29:55;;;;;;;2.80;1.40;;;19.60;55.20;;;;;;5053431;28;20021;-53
2021/05/18 16:32:20;;;;;;;3.67;1.52;;;19.30;55.20;;;;;;5055146;28;20068;-56
2021/05/18 16:34:55;;;;;;;1.95;1.27;;;19.20;56.10;;;;;;5073775;28;20037;-54
2021/05/18 16:37:23;;;;;;;2.20;1.30;;;19.10;56.00;;;;;;5073288;28;20021;-56
2021/05/18 16:39:49;;;;;;;3.35;1.30;;;19.10;56.40;;;;;;5054599;28;20020;-59
2021/05/18 16:42:15;;;;;;;3.15;1.30;;;19.00;55.60;;;;;;5055029;28;20457;-53
2021/05/18 16:44:41;;;;;;;3.03;1.40;;;18.90;55.30;;;;;;5073536;28;20029;-56
2021/05/18 16:47:06;;;;;;;2.83;1.63;;;18.90;55.40;;;;;;5055077;28;20032;-53
2021/05/18 16:49:32;;;;;;;1.77;1.25;;;18.90;55.30;;;;;;5072602;28;20036;-54
2021/05/18 16:51:59;;;;;;;1.50;1.10;;;18.90;55.30;;;;;;5072002;28;20052;-55
2021/05/18 16:54:25;;;;;;;2.53;1.30;;;19.00;55.00;;;;;;5073227;28;20040;-54
2021/05/18 16:56:52;;;;;;;3.17;1.40;;;19.00;55.00;;;;;;5072836;28;20035;-52
2021/05/18 16:59:18;;;;;;;2.25;1.27;;;19.00;55.00;;;;;;5054807;28;20029;-54
2021/05/18 17:01:44;;;;;;;2.00;1.30;;;19.10;54.90;;;;;;5055137;28;20123;-51
2021/05/18 17:04:11;;;;;;;3.10;1.40;;;18.90;54.90;;;;;;5071371;28;20492;-52
2021/05/18 17:06:37;;;;;;;2.90;1.60;;;18.70;55.40;;;;;;5072977;28;20024;-55
2021/05/18 17:09:05;;;;;;;3.25;1.60;;;18.70;55.80;;;;;;5069962;28;20543;-51
2021/05/18 17:11:31;;;;;;;3.50;1.52;;;18.60;55.80;;;;;;5071418;28;20116;-56
2021/05/18 17:13:57;;;;;;;2.13;1.20;;;18.50;55.60;;;;;;5072435;28;20064;-56
2021/05/18 17:16:22;;;;;;;2.90;1.55;;;18.40;55.70;;;;;;5053821;28;20128;-53
2021/05/18 17:18:48;;;;;;;2.33;1.23;;;18.50;55.50;;;;;;5071329;28;20024;-57
2021/05/18 17:21:14;;;;;;;3.60;1.70;;;18.40;55.00;;;;;;5072355;28;20033;-51
2021/05/18 17:23:39;;;;;;;5.40;1.95;;;18.30;55.50;;;;;;5071762;28;20489;-56
2021/05/18 17:26:10;;;;;;;7.85;2.40;;;18.30;55.90;;;;;;5072231;28;20227;-56
2021/05/18 17:28:38;;;;;;;6.38;2.97;;;18.30;56.40;;;;;;5054726;28;20032;-53
2021/05/18 17:31:06;;;;;;;5.43;2.70;;;18.20;56.60;;;;;;5072000;28;20377;-53
2021/05/18 17:33:32;;;;;;;4.38;2.28;;;18.30;56.70;;;;;;5054739;28;20040;-55
2021/05/18 17:35:59;;;;;;;3.40;1.50;;;18.30;56.80;;;;;;5072579;28;20028;-53
2021/05/18 17:38:26;;;;;;;5.07;1.55;;;18.20;57.20;;;;;;5072668;28;20032;-49
2021/05/18 17:40:52;;;;;;;2.65;1.50;;;18.10;57.50;;;;;;5053391;28;20380;-53
2021/05/18 17:43:18;;;;;;;3.35;1.52;;;18.10;57.30;;;;;;5072531;28;20024;-56
2021/05/18 17:45:44;;;;;;;4.18;1.33;;;18.10;57.60;;;;;;5071500;28;20535;-58
2021/05/18 17:48:11;;;;;;;2.05;1.30;;;18.10;57.50;;;;;;5070209;28;20024;-51
2021/05/18 17:50:37;;;;;;;6.18;1.50;;;18.00;57.60;;;;;;5052935;28;20044;-53
2021/05/18 17:53:03;;;;;;;4.30;1.58;;;18.00;57.80;;;;;;5065270;28;20137;-55
2021/05/18 17:55:29;;;;;;;2.03;1.10;;;17.80;58.00;;;;;;5090704;28;20028;-56
2021/05/18 17:57:55;;;;;;;2.17;1.52;;;17.70;58.80;;;;;;5088355;28;20027;-55
2021/05/18 18:00:27;;;;;;;3.83;1.52;;;17.60;59.00;;;;;;5090101;28;20036;-52
2021/05/18 18:02:53;;;;;;;7.32;1.70;;;17.50;59.30;;;;;;5090731;28;20020;-53
2021/05/18 18:05:19;;;;;;;6.68;1.80;;;17.40;59.20;;;;;;5088183;28;20024;-53